Bookmark and Share
Track history (hours):
 

Yang Mei Hu

Last reported at 2014-Apr-16 09:06 UTC. Time now 2014-Apr-16 22:27 UTC.
Position N 50°48' W 005°44'.

Length 245 m; draft 13.3 m.

Type: Tanker. MMSI: 413858000.

NotesDate/timePositionNaut miles runAvg speedWind from/ knotsBaromVisibWave heightAir tempDewpointWater temp
2014-Apr-16 09:06N 50°48' W 005°44'  
2014-Apr-09 02:26N 38°41' W 009°57'9 9.6
2014-Apr-09 01:33N 38°32' W 009°54'1010.0
2014-Apr-09 00:33N 38°23' W 009°51'10 9.9
2014-Apr-08 23:33N 38°13' W 009°48'10 9.9
2014-Apr-08 22:33N 38°04' W 009°45'10 9.7
2014-Apr-08 21:34N 37°54' W 009°43'10 9.7
2014-Apr-08 20:33N 37°45' W 009°40'10 9.8
2014-Apr-08 19:32N 37°35' W 009°37'10 9.9
2014-Apr-08 18:33N 37°25' W 009°34'31 9.6
2014-Apr-08 15:22N 36°56' W 009°25'8 9.3
2014-Apr-08 14:31N 36°48' W 009°22'1010.0
2014-Apr-08 13:33N 36°41' W 009°14'1110.7
2014-Apr-08 12:33N 36°38' W 009°01'1111.1
2014-Apr-08 11:33N 36°34' W 008°48'1211.7
2014-Apr-08 10:33N 36°30' W 008°34'1411.6
2014-Apr-08 09:20N 36°25' W 008°18'2111.3
2014-Apr-08 07:31N 36°19' W 007°54'1711.8
2014-Apr-08 06:05N 36°13' W 007°34'9610.8
2014-Apr-07 21:12N 35°58' W 005°37'710.5
2014-Apr-07 20:33N 35°59' W 005°29'1010.4
2014-Apr-07 19:33N 36°02' W 005°16'  

Dump ship's entire track history

sailing weather and tide predictions

Yang Mei Hu — BQCG — position and weather